QFA7121 PHKO-PHHN
Flight info
| Callsign | QFA7121 |
|---|---|
| Flight time | 0h 45m |
| Altitude | 7000 |
| Route | KOA MYNAH V11 UPP/N0146F060 V11 BARBY |
| Aircraft | C208/L-SDF/C |
Departure
| Time | 2026-05-08 03:42 |
|---|---|
| Airport | Ellison Onizuka Kona International Airport at Keāhole (PHKO) |
Arrival
| Time | 2026-05-08 04:28 |
|---|---|
| Airport | Hana Airport (PHHN) |
| Time | Latitude | Longitude | Altitude | Speed | Heading |
|---|---|---|---|---|---|
| 2026-05-08 03:18 | 19.72774 | -156.04315 | 46 ft | 0 kts | 5° |
| 2026-05-08 03:31 | 19.72785 | -156.04314 | 46 ft | 5 kts | 4° |
| 2026-05-08 03:31 | 19.72801 | -156.04313 | 46 ft | 0 kts | 4° |
| 2026-05-08 03:33 | 19.72803 | -156.04313 | 46 ft | 0 kts | 3° |
| 2026-05-08 03:34 | 19.72806 | -156.04313 | 46 ft | 0 kts | 358° |
| 2026-05-08 03:35 | 19.72813 | -156.04321 | 46 ft | 6 kts | 279° |
| 2026-05-08 03:35 | 19.72814 | -156.04338 | 46 ft | 0 kts | 275° |
| 2026-05-08 03:35 | 19.72815 | -156.04356 | 46 ft | 6 kts | 274° |
| 2026-05-08 03:36 | 19.72867 | -156.04395 | 47 ft | 15 kts | 354° |
| 2026-05-08 03:36 | 19.72998 | -156.04386 | 47 ft | 23 kts | 6° |
| 2026-05-08 03:36 | 19.73171 | -156.04372 | 48 ft | 24 kts | 4° |
| 2026-05-08 03:36 | 19.73358 | -156.04357 | 48 ft | 30 kts | 4° |
| 2026-05-08 03:37 | 19.73583 | -156.04332 | 48 ft | 35 kts | 5° |
| 2026-05-08 03:37 | 19.73814 | -156.04309 | 49 ft | 26 kts | 12° |
| 2026-05-08 03:37 | 19.74008 | -156.04299 | 50 ft | 30 kts | 5° |
| 2026-05-08 03:37 | 19.74178 | -156.04280 | 50 ft | 10 kts | 7° |
| 2026-05-08 03:38 | 19.74191 | -156.04280 | 50 ft | 4 kts | 359° |
| 2026-05-08 03:38 | 19.74243 | -156.04278 | 51 ft | 11 kts | 4° |
| 2026-05-08 03:38 | 19.74346 | -156.04272 | 51 ft | 18 kts | 7° |
| 2026-05-08 03:38 | 19.74495 | -156.04256 | 52 ft | 24 kts | 6° |
| 2026-05-08 03:39 | 19.74662 | -156.04234 | 52 ft | 18 kts | 5° |
| 2026-05-08 03:39 | 19.74785 | -156.04230 | 53 ft | 21 kts | 4° |
| 2026-05-08 03:39 | 19.74951 | -156.04214 | 53 ft | 27 kts | 8° |
| 2026-05-08 03:39 | 19.75140 | -156.04197 | 53 ft | 26 kts | 3° |
| 2026-05-08 03:40 | 19.75253 | -156.04182 | 54 ft | 0 kts | 18° |
| 2026-05-08 03:40 | 19.75279 | -156.04178 | 54 ft | 8 kts | 356° |
| 2026-05-08 03:40 | 19.75356 | -156.04215 | 50 ft | 16 kts | 330° |
| 2026-05-08 03:40 | 19.75416 | -156.04325 | 54 ft | 19 kts | 252° |
| 2026-05-08 03:41 | 19.75366 | -156.04403 | 51 ft | 20 kts | 228° |
| 2026-05-08 03:41 | 19.75225 | -156.04448 | 54 ft | 29 kts | 188° |
| 2026-05-08 03:41 | 19.74886 | -156.04478 | 53 ft | 69 kts | 185° |
| 2026-05-08 03:41 | 19.74325 | -156.04526 | 111 ft | 89 kts | 183° |
| 2026-05-08 03:42 | 19.73702 | -156.04553 | 295 ft | 91 kts | 181° |
| 2026-05-08 03:42 | 19.73018 | -156.04534 | 360 ft | 108 kts | 179° |
| 2026-05-08 03:42 | 19.72206 | -156.04514 | 466 ft | 121 kts | 180° |
| 2026-05-08 03:42 | 19.71352 | -156.04500 | 668 ft | 126 kts | 179° |
| 2026-05-08 03:43 | 19.70467 | -156.04470 | 830 ft | 129 kts | 176° |
| 2026-05-08 03:43 | 19.69546 | -156.04379 | 935 ft | 136 kts | 173° |
| 2026-05-08 03:43 | 19.68615 | -156.04236 | 1124 ft | 135 kts | 172° |
| 2026-05-08 03:43 | 19.67707 | -156.04064 | 1347 ft | 130 kts | 169° |
| 2026-05-08 03:44 | 19.66839 | -156.03866 | 1569 ft | 126 kts | 167° |
| 2026-05-08 03:44 | 19.65996 | -156.03642 | 1799 ft | 124 kts | 166° |
| 2026-05-08 03:44 | 19.65166 | -156.03449 | 2023 ft | 121 kts | 181° |
| 2026-05-08 03:44 | 19.64497 | -156.03890 | 2253 ft | 118 kts | 246° |
| 2026-05-08 03:45 | 19.64577 | -156.04713 | 2482 ft | 116 kts | 298° |
| 2026-05-08 03:45 | 19.64961 | -156.05465 | 2706 ft | 117 kts | 304° |
| 2026-05-08 03:45 | 19.65514 | -156.06110 | 2894 ft | 120 kts | 327° |
| 2026-05-08 03:45 | 19.66157 | -156.06659 | 3107 ft | 120 kts | 303° |
| 2026-05-08 03:46 | 19.66604 | -156.07402 | 3308 ft | 121 kts | 303° |
| 2026-05-08 03:46 | 19.67069 | -156.08147 | 3505 ft | 122 kts | 302° |
| 2026-05-08 03:46 | 19.67528 | -156.08905 | 3700 ft | 122 kts | 302° |
| 2026-05-08 03:46 | 19.67985 | -156.09669 | 3897 ft | 123 kts | 302° |
| 2026-05-08 03:47 | 19.68445 | -156.10440 | 4093 ft | 124 kts | 302° |
| 2026-05-08 03:47 | 19.68906 | -156.11214 | 4290 ft | 124 kts | 302° |
| 2026-05-08 03:47 | 19.69369 | -156.11993 | 4491 ft | 125 kts | 302° |
| 2026-05-08 03:47 | 19.69833 | -156.12773 | 4688 ft | 125 kts | 302° |
| 2026-05-08 03:48 | 19.70300 | -156.13558 | 4889 ft | 126 kts | 302° |
| 2026-05-08 03:48 | 19.70765 | -156.14343 | 5078 ft | 126 kts | 302° |
| 2026-05-08 03:48 | 19.71233 | -156.15129 | 5268 ft | 126 kts | 301° |
| 2026-05-08 03:48 | 19.71696 | -156.15908 | 5457 ft | 127 kts | 301° |
| 2026-05-08 03:49 | 19.72172 | -156.16710 | 5654 ft | 127 kts | 301° |
| 2026-05-08 03:49 | 19.72646 | -156.17506 | 5848 ft | 128 kts | 300° |
| 2026-05-08 03:49 | 19.73118 | -156.18302 | 6047 ft | 128 kts | 300° |
| 2026-05-08 03:49 | 19.73514 | -156.18973 | 6205 ft | 127 kts | 300° |
| 2026-05-08 03:50 | 19.73936 | -156.19682 | 6377 ft | 127 kts | 299° |
| 2026-05-08 03:50 | 19.74404 | -156.20473 | 6564 ft | 126 kts | 299° |
| 2026-05-08 03:50 | 19.74873 | -156.21264 | 6731 ft | 127 kts | 299° |
| 2026-05-08 03:50 | 19.75347 | -156.22061 | 6894 ft | 128 kts | 299° |
| 2026-05-08 03:51 | 19.75830 | -156.22875 | 6995 ft | 136 kts | 299° |
| 2026-05-08 03:51 | 19.76358 | -156.23761 | 7007 ft | 148 kts | 299° |
| 2026-05-08 03:51 | 19.76926 | -156.24720 | 7008 ft | 158 kts | 300° |
| 2026-05-08 03:51 | 19.77524 | -156.25716 | 7006 ft | 161 kts | 300° |
| 2026-05-08 03:52 | 19.78124 | -156.26729 | 7008 ft | 163 kts | 300° |
| 2026-05-08 03:52 | 19.78730 | -156.27755 | 7003 ft | 165 kts | 300° |
| 2026-05-08 03:52 | 19.79343 | -156.28787 | 7004 ft | 165 kts | 299° |
| 2026-05-08 03:52 | 19.79955 | -156.29819 | 7003 ft | 165 kts | 300° |
| 2026-05-08 03:53 | 19.80572 | -156.30859 | 7001 ft | 167 kts | 299° |
| 2026-05-08 03:53 | 19.81190 | -156.31909 | 7006 ft | 168 kts | 300° |
| 2026-05-08 03:53 | 19.81981 | -156.32823 | 6992 ft | 171 kts | 326° |
| 2026-05-08 03:53 | 19.83092 | -156.33258 | 6991 ft | 171 kts | 352° |
| 2026-05-08 03:54 | 19.84274 | -156.33416 | 6993 ft | 171 kts | 352° |
| 2026-05-08 03:54 | 19.85448 | -156.33595 | 6996 ft | 171 kts | 352° |
| 2026-05-08 03:54 | 19.86627 | -156.33773 | 7001 ft | 170 kts | 352° |
| 2026-05-08 03:54 | 19.87799 | -156.33945 | 7001 ft | 170 kts | 352° |
| 2026-05-08 03:55 | 19.88955 | -156.34119 | 7002 ft | 170 kts | 352° |
| 2026-05-08 03:55 | 19.90127 | -156.34293 | 7001 ft | 170 kts | 352° |
| 2026-05-08 03:55 | 19.91299 | -156.34468 | 7002 ft | 170 kts | 352° |
| 2026-05-08 03:55 | 19.92471 | -156.34643 | 7006 ft | 170 kts | 352° |
| 2026-05-08 03:56 | 19.93643 | -156.34817 | 7001 ft | 170 kts | 352° |
| 2026-05-08 03:56 | 19.94812 | -156.34990 | 7003 ft | 169 kts | 352° |
| 2026-05-08 03:56 | 19.95978 | -156.35165 | 7004 ft | 169 kts | 352° |
| 2026-05-08 03:56 | 19.97143 | -156.35339 | 7004 ft | 169 kts | 352° |
| 2026-05-08 03:57 | 19.98309 | -156.35514 | 7008 ft | 169 kts | 352° |
| 2026-05-08 03:57 | 19.99477 | -156.35688 | 7007 ft | 169 kts | 352° |
| 2026-05-08 03:57 | 20.00643 | -156.35862 | 7007 ft | 169 kts | 352° |
| 2026-05-08 03:57 | 20.01807 | -156.35978 | 7002 ft | 169 kts | 5° |
| 2026-05-08 03:58 | 20.02915 | -156.35609 | 7001 ft | 167 kts | 25° |
| 2026-05-08 03:58 | 20.03982 | -156.35115 | 7005 ft | 167 kts | 23° |
| 2026-05-08 03:58 | 20.05052 | -156.34642 | 7009 ft | 166 kts | 24° |
| 2026-05-08 03:58 | 20.06120 | -156.34163 | 7007 ft | 167 kts | 24° |
| 2026-05-08 03:59 | 20.07189 | -156.33683 | 7011 ft | 167 kts | 23° |
| 2026-05-08 03:59 | 20.08256 | -156.33204 | 7011 ft | 166 kts | 23° |
| 2026-05-08 03:59 | 20.09307 | -156.32730 | 7011 ft | 166 kts | 24° |
| 2026-05-08 03:59 | 20.10371 | -156.32251 | 7003 ft | 166 kts | 23° |
| 2026-05-08 04:00 | 20.11436 | -156.31772 | 7009 ft | 166 kts | 23° |
| 2026-05-08 04:00 | 20.12499 | -156.31293 | 7011 ft | 166 kts | 23° |
| 2026-05-08 04:00 | 20.13564 | -156.30813 | 7011 ft | 166 kts | 23° |
| 2026-05-08 04:00 | 20.14625 | -156.30337 | 7011 ft | 166 kts | 23° |
| 2026-05-08 04:01 | 20.15687 | -156.29858 | 7009 ft | 166 kts | 23° |
| 2026-05-08 04:01 | 20.16748 | -156.29381 | 7010 ft | 165 kts | 23° |
| 2026-05-08 04:01 | 20.17808 | -156.28904 | 7007 ft | 165 kts | 23° |
| 2026-05-08 04:01 | 20.18867 | -156.28426 | 7011 ft | 165 kts | 23° |
| 2026-05-08 04:02 | 20.19927 | -156.27949 | 7008 ft | 165 kts | 23° |
| 2026-05-08 04:02 | 20.20987 | -156.27471 | 7010 ft | 165 kts | 23° |
| 2026-05-08 04:02 | 20.22044 | -156.26995 | 7014 ft | 165 kts | 23° |
| 2026-05-08 04:02 | 20.23102 | -156.26518 | 7011 ft | 165 kts | 23° |
| 2026-05-08 04:03 | 20.24157 | -156.26043 | 7012 ft | 165 kts | 23° |
| 2026-05-08 04:03 | 20.26269 | -156.25090 | 7012 ft | 165 kts | 23° |
| 2026-05-08 04:03 | 20.27323 | -156.24615 | 7015 ft | 165 kts | 23° |
| 2026-05-08 04:04 | 20.28379 | -156.24139 | 7017 ft | 165 kts | 23° |
| 2026-05-08 04:04 | 20.29432 | -156.23664 | 7017 ft | 165 kts | 23° |
| 2026-05-08 04:04 | 20.30484 | -156.23188 | 7019 ft | 164 kts | 23° |
| 2026-05-08 04:04 | 20.31524 | -156.22719 | 7016 ft | 164 kts | 23° |
| 2026-05-08 04:05 | 20.32589 | -156.22240 | 7021 ft | 164 kts | 23° |
| 2026-05-08 04:05 | 20.33647 | -156.21762 | 7025 ft | 164 kts | 23° |
| 2026-05-08 04:05 | 20.34699 | -156.21287 | 7022 ft | 164 kts | 23° |
| 2026-05-08 04:05 | 20.35749 | -156.20813 | 7029 ft | 164 kts | 23° |
| 2026-05-08 04:06 | 20.36798 | -156.20339 | 7031 ft | 164 kts | 23° |
| 2026-05-08 04:06 | 20.37849 | -156.19864 | 7033 ft | 164 kts | 23° |
| 2026-05-08 04:06 | 20.38900 | -156.19390 | 7032 ft | 164 kts | 23° |
| 2026-05-08 04:06 | 20.39948 | -156.18915 | 7030 ft | 164 kts | 23° |
| 2026-05-08 04:07 | 20.40998 | -156.18442 | 7032 ft | 164 kts | 23° |
| 2026-05-08 04:07 | 20.42046 | -156.17969 | 7031 ft | 164 kts | 23° |
| 2026-05-08 04:07 | 20.43096 | -156.17494 | 7028 ft | 164 kts | 23° |
| 2026-05-08 04:07 | 20.44147 | -156.17018 | 7011 ft | 165 kts | 23° |
| 2026-05-08 04:08 | 20.45201 | -156.16542 | 7014 ft | 164 kts | 23° |
| 2026-05-08 04:08 | 20.46255 | -156.16066 | 7013 ft | 164 kts | 23° |
| 2026-05-08 04:08 | 20.47304 | -156.15591 | 7010 ft | 164 kts | 23° |
| 2026-05-08 04:08 | 20.48353 | -156.15116 | 7013 ft | 164 kts | 23° |
| 2026-05-08 04:09 | 20.49402 | -156.14642 | 7007 ft | 164 kts | 23° |
| 2026-05-08 04:09 | 20.50449 | -156.14168 | 7005 ft | 164 kts | 23° |
| 2026-05-08 04:09 | 20.51496 | -156.13694 | 7016 ft | 164 kts | 23° |
| 2026-05-08 04:09 | 20.52545 | -156.13220 | 7011 ft | 163 kts | 23° |
| 2026-05-08 04:10 | 20.53592 | -156.12746 | 7010 ft | 163 kts | 23° |
| 2026-05-08 04:10 | 20.54637 | -156.12273 | 7007 ft | 163 kts | 23° |
| 2026-05-08 04:10 | 20.55685 | -156.11798 | 7012 ft | 163 kts | 23° |
| 2026-05-08 04:10 | 20.56730 | -156.11325 | 7015 ft | 163 kts | 23° |
| 2026-05-08 04:11 | 20.57763 | -156.10857 | 7016 ft | 163 kts | 23° |
| 2026-05-08 04:11 | 20.58811 | -156.10383 | 7005 ft | 163 kts | 23° |
| 2026-05-08 04:11 | 20.59857 | -156.09908 | 7016 ft | 163 kts | 23° |
| 2026-05-08 04:11 | 20.60917 | -156.09428 | 7014 ft | 163 kts | 23° |
| 2026-05-08 04:12 | 20.61963 | -156.08954 | 7012 ft | 163 kts | 23° |
| 2026-05-08 04:12 | 20.62995 | -156.08486 | 7016 ft | 163 kts | 23° |
| 2026-05-08 04:12 | 20.64041 | -156.08013 | 7010 ft | 163 kts | 23° |
| 2026-05-08 04:12 | 20.65101 | -156.07532 | 7017 ft | 163 kts | 23° |
| 2026-05-08 04:13 | 20.66146 | -156.07058 | 7015 ft | 164 kts | 23° |
| 2026-05-08 04:13 | 20.67195 | -156.06582 | 7016 ft | 164 kts | 23° |
| 2026-05-08 04:13 | 20.68242 | -156.06108 | 7016 ft | 164 kts | 23° |
| 2026-05-08 04:13 | 20.69278 | -156.05638 | 7015 ft | 164 kts | 23° |
| 2026-05-08 04:14 | 20.70328 | -156.05161 | 7016 ft | 164 kts | 23° |
| 2026-05-08 04:14 | 20.71377 | -156.04685 | 7017 ft | 164 kts | 23° |
| 2026-05-08 04:14 | 20.72426 | -156.04209 | 7018 ft | 164 kts | 23° |
| 2026-05-08 04:14 | 20.73474 | -156.03730 | 7015 ft | 164 kts | 25° |
| 2026-05-08 04:15 | 20.74352 | -156.02981 | 7015 ft | 162 kts | 50° |
| 2026-05-08 04:15 | 20.75295 | -156.02364 | 7012 ft | 163 kts | 8° |
| 2026-05-08 04:15 | 20.76360 | -156.02681 | 7016 ft | 164 kts | 320° |
| 2026-05-08 04:15 | 20.77002 | -156.03669 | 7029 ft | 163 kts | 300° |
| 2026-05-08 04:16 | 20.77754 | -156.04568 | 7033 ft | 163 kts | 319° |
| 2026-05-08 04:16 | 20.78632 | -156.05339 | 7028 ft | 163 kts | 320° |
| 2026-05-08 04:16 | 20.79510 | -156.06112 | 7027 ft | 164 kts | 320° |
| 2026-05-08 04:16 | 20.80388 | -156.06890 | 7026 ft | 164 kts | 320° |
| 2026-05-08 04:17 | 20.81268 | -156.07668 | 7019 ft | 165 kts | 320° |
| 2026-05-08 04:17 | 20.82135 | -156.08432 | 6889 ft | 153 kts | 321° |
| 2026-05-08 04:17 | 20.82925 | -156.09128 | 6749 ft | 150 kts | 320° |
| 2026-05-08 04:17 | 20.83759 | -156.09878 | 6637 ft | 160 kts | 320° |
| 2026-05-08 04:18 | 20.84612 | -156.10630 | 6528 ft | 158 kts | 321° |
| 2026-05-08 04:18 | 20.85305 | -156.11525 | 6344 ft | 161 kts | 288° |
| 2026-05-08 04:18 | 20.85215 | -156.12685 | 6156 ft | 162 kts | 239° |
| 2026-05-08 04:18 | 20.84356 | -156.13402 | 5971 ft | 160 kts | 192° |
| 2026-05-08 04:19 | 20.83301 | -156.13212 | 5789 ft | 156 kts | 141° |
| 2026-05-08 04:19 | 20.82688 | -156.12329 | 5454 ft | 148 kts | 116° |
| 2026-05-08 04:19 | 20.82230 | -156.11322 | 4894 ft | 152 kts | 112° |
| 2026-05-08 04:19 | 20.81819 | -156.10342 | 4521 ft | 144 kts | 110° |
| 2026-05-08 04:20 | 20.81400 | -156.09358 | 4033 ft | 146 kts | 114° |
| 2026-05-08 04:20 | 20.80944 | -156.08406 | 3639 ft | 143 kts | 115° |
| 2026-05-08 04:20 | 20.80496 | -156.07502 | 3345 ft | 134 kts | 111° |
| 2026-05-08 04:20 | 20.80076 | -156.06551 | 2717 ft | 147 kts | 113° |
| 2026-05-08 04:21 | 20.79629 | -156.05571 | 2195 ft | 149 kts | 111° |
| 2026-05-08 04:21 | 20.79189 | -156.04609 | 1937 ft | 139 kts | 110° |
| 2026-05-08 04:21 | 20.78930 | -156.03623 | 1508 ft | 141 kts | 98° |
| 2026-05-08 04:21 | 20.78767 | -156.02601 | 1164 ft | 136 kts | 96° |
| 2026-05-08 04:22 | 20.78638 | -156.01618 | 875 ft | 130 kts | 94° |
| 2026-05-08 04:22 | 20.78715 | -156.00711 | 702 ft | 119 kts | 53° |
| 2026-05-08 04:22 | 20.79408 | -156.00386 | 615 ft | 111 kts | 3° |
| 2026-05-08 04:22 | 20.80053 | -156.00671 | 546 ft | 101 kts | 318° |
| 2026-05-08 04:23 | 20.80450 | -156.01316 | 347 ft | 105 kts | 294° |
| 2026-05-08 04:23 | 20.80258 | -156.02018 | 341 ft | 104 kts | 210° |
| 2026-05-08 04:23 | 20.79619 | -156.02036 | 280 ft | 96 kts | 116° |
| 2026-05-08 04:23 | 20.79564 | -156.01339 | 67 ft | 92 kts | 85° |
| 2026-05-08 04:24 | 20.79582 | -156.00669 | 227 ft | 96 kts | 81° |
| 2026-05-08 04:24 | 20.79884 | -156.00026 | 385 ft | 101 kts | 31° |
| 2026-05-08 04:24 | 20.80624 | -156.00093 | 441 ft | 124 kts | 332° |
| 2026-05-08 04:24 | 20.81176 | -156.00797 | 436 ft | 119 kts | 305° |
| 2026-05-08 04:25 | 20.81550 | -156.01540 | 303 ft | 112 kts | 298° |
| 2026-05-08 04:25 | 20.81867 | -156.02345 | 227 ft | 120 kts | 294° |
| 2026-05-08 04:25 | 20.82116 | -156.03228 | 148 ft | 128 kts | 282° |
| 2026-05-08 04:25 | 20.82031 | -156.04103 | 290 ft | 113 kts | 240° |
| 2026-05-08 04:26 | 20.81493 | -156.04581 | 447 ft | 102 kts | 201° |
| 2026-05-08 04:26 | 20.80814 | -156.04858 | 487 ft | 107 kts | 191° |
| 2026-05-08 04:26 | 20.80126 | -156.04818 | 661 ft | 97 kts | 147° |
| 2026-05-08 04:26 | 20.79691 | -156.04275 | 689 ft | 97 kts | 110° |
| 2026-05-08 04:27 | 20.79521 | -156.03650 | 664 ft | 77 kts | 88° |
| 2026-05-08 04:27 | 20.79545 | -156.03064 | 469 ft | 80 kts | 82° |
| 2026-05-08 04:27 | 20.79554 | -156.02482 | 267 ft | 80 kts | 84° |
| 2026-05-08 04:27 | 20.79560 | -156.02101 | 108 ft | 77 kts | 84° |
| 2026-05-08 04:28 | 20.79565 | -156.01454 | 55 ft | 41 kts | 93° |
| 2026-05-08 04:28 | 20.79562 | -156.01402 | 59 ft | 0 kts | 93° |
| 2026-05-08 04:28 | 20.79561 | -156.01397 | 59 ft | 3 kts | 122° |
| 2026-05-08 04:28 | 20.79488 | -156.01416 | 59 ft | 13 kts | 238° |
| 2026-05-08 04:29 | 20.79479 | -156.01487 | 58 ft | 11 kts | 267° |
| 2026-05-08 04:29 | 20.79479 | -156.01493 | 60 ft | 0 kts | 266° |